Time;durP1;ratioP1;P1;durP2;ratioP2;P2;SDS_P1;SDS_P2;PMS_P1;PMS_P2;Temp;Humidity;BMP_temperature;BMP_pressure;BME280_temperature;BME280_humidity;BME280_pressure;Samples;Min_cycle;Max_cycle;Signal;HPM_P1;HPM_P2
2022/09/03 00:02:24;;;;;;;1.27;0.60;;;15.90;99.90;;;;;;4991439;28;20465;-70
2022/09/03 00:04:58;;;;;;;0.73;0.73;;;15.80;99.90;;;;;;4993007;28;20905;-70
2022/09/03 00:07:32;;;;;;;1.00;1.00;;;15.80;99.90;;;;;;4992960;28;20476;-70
2022/09/03 00:10:04;;;;;;;0.80;0.80;;;15.80;99.90;;;;;;4993264;28;20474;-70
2022/09/03 00:12:38;;;;;;;1.10;1.10;;;15.80;99.90;;;;;;4993249;28;20482;-70
2022/09/03 00:15:08;;;;;;;0.70;0.70;;;15.80;99.90;;;;;;4993314;28;20505;-70
2022/09/03 00:17:38;;;;;;;1.23;0.70;;;15.80;99.90;;;;;;4992092;28;20816;-70
2022/09/03 00:20:10;;;;;;;0.80;0.80;;;15.70;99.90;;;;;;4992882;28;22086;-70
2022/09/03 00:22:42;;;;;;;0.90;0.90;;;15.70;99.90;;;;;;4992675;28;20477;-70
2022/09/03 00:25:13;;;;;;;0.73;0.73;;;15.70;99.90;;;;;;4993610;28;20489;-70
2022/09/03 00:27:42;;;;;;;1.10;1.10;;;15.70;99.90;;;;;;4983829;28;20655;-69
2022/09/03 00:30:12;;;;;;;0.60;0.60;;;15.60;99.90;;;;;;4989926;28;20477;-71
2022/09/03 00:32:46;;;;;;;0.70;0.70;;;15.60;99.90;;;;;;4993758;28;20503;-71
2022/09/03 00:35:17;;;;;;;0.60;0.60;;;15.60;99.90;;;;;;4995448;28;20546;-70
2022/09/03 00:37:45;;;;;;;7.93;0.80;;;15.60;99.90;;;;;;4987794;28;20481;-71
2022/09/03 00:40:21;;;;;;;0.40;0.40;;;15.60;99.90;;;;;;4992244;28;20485;-71
2022/09/03 00:42:58;;;;;;;0.80;0.80;;;15.50;99.90;;;;;;4986734;28;20464;-71
2022/09/03 00:45:34;;;;;;;0.30;0.30;;;15.50;99.90;;;;;;4993256;28;20490;-71
2022/09/03 00:48:13;;;;;;;0.50;0.50;;;15.50;99.90;;;;;;4991782;28;20474;-71
2022/09/03 00:50:53;;;;;;;0.60;0.60;;;15.50;99.90;;;;;;4985512;28;20908;-71
2022/09/03 00:53:27;;;;;;;0.60;0.60;;;15.60;99.90;;;;;;4991757;28;20949;-71
2022/09/03 00:56:03;;;;;;;0.77;0.77;;;15.60;99.90;;;;;;4993903;28;20479;-71
2022/09/03 00:58:42;;;;;;;0.63;0.57;;;15.60;99.90;;;;;;4990974;28;21011;-71
2022/09/03 01:01:18;;;;;;;0.77;0.77;;;15.60;99.90;;;;;;4992520;28;20520;-71
2022/09/03 01:03:57;;;;;;;0.40;0.40;;;15.60;99.90;;;;;;4985787;28;20465;-71
2022/09/03 01:06:34;;;;;;;0.97;0.90;;;15.60;99.90;;;;;;4991427;28;20974;-71
2022/09/03 01:09:14;;;;;;;2.30;1.00;;;15.60;99.90;;;;;;4991753;28;20484;-71
2022/09/03 01:11:58;;;;;;;0.50;0.50;;;15.60;99.90;;;;;;4984796;28;20462;-71
2022/09/03 01:14:46;;;;;;;0.60;0.60;;;15.60;99.90;;;;;;4992978;28;20999;-71
2022/09/03 01:17:21;;;;;;;0.67;0.67;;;15.50;99.90;;;;;;4987519;28;20482;-71
2022/09/03 01:20:02;;;;;;;0.60;0.50;;;15.50;99.90;;;;;;4990249;28;20543;-71
2022/09/03 01:22:53;;;;;;;0.60;0.40;;;15.40;99.90;;;;;;4991800;28;20988;-70
2022/09/03 01:25:37;;;;;;;0.60;0.60;;;15.40;99.90;;;;;;4992199;28;21029;-71
2022/09/03 01:28:19;;;;;;;0.67;0.67;;;15.40;99.90;;;;;;4986532;28;20515;-70
2022/09/03 01:30:52;;;;;;;2.67;0.50;;;15.30;99.90;;;;;;4985058;28;20957;-71
2022/09/03 01:33:24;;;;;;;0.73;0.63;;;15.30;99.90;;;;;;4997548;28;20469;-71
2022/09/03 01:36:00;;;;;;;0.73;0.73;;;15.30;99.90;;;;;;4992279;28;20957;-70
2022/09/03 01:38:33;;;;;;;0.50;0.50;;;15.30;99.90;;;;;;4987989;28;20483;-70
2022/09/03 01:44:08;;;;;;;0.30;0.30;;;15.20;99.90;;;;;;4991528;28;20456;-70
2022/09/03 01:46:39;;;;;;;0.40;0.40;;;15.10;99.90;;;;;;4994423;28;20982;-71
2022/09/03 01:49:14;;;;;;;0.57;0.57;;;15.10;99.90;;;;;;4991609;28;20468;-71
2022/09/03 01:51:42;;;;;;;1.03;0.70;;;15.00;99.90;;;;;;4981530;28;20508;-71
2022/09/03 01:54:39;;;;;;;0.80;0.80;;;15.00;99.90;;;;;;4991622;28;20934;-71
2022/09/03 01:57:23;;;;;;;1.00;0.90;;;14.90;99.90;;;;;;4985210;28;20544;-70
2022/09/03 01:59:57;;;;;;;0.50;0.50;;;14.90;99.90;;;;;;4988095;28;20516;-70
2022/09/03 02:02:26;;;;;;;0.90;0.90;;;14.80;99.90;;;;;;4988808;28;20584;-70
2022/09/03 02:04:59;;;;;;;0.93;0.93;;;14.80;99.90;;;;;;4987787;28;20501;-71
2022/09/03 02:07:32;;;;;;;0.73;0.40;;;14.80;99.90;;;;;;4990991;28;20473;-71
2022/09/03 02:09:59;;;;;;;0.50;0.50;;;14.80;99.90;;;;;;4991628;28;20474;-71
2022/09/03 02:12:28;;;;;;;0.80;0.77;;;14.70;99.90;;;;;;4992045;28;20561;-71
2022/09/03 02:14:56;;;;;;;1.13;0.60;;;14.70;99.90;;;;;;4990775;28;20500;-71
2022/09/03 02:17:23;;;;;;;0.40;0.40;;;14.70;99.90;;;;;;4990198;28;20495;-71
2022/09/03 02:19:50;;;;;;;2.20;0.50;;;14.70;99.90;;;;;;4987357;28;20954;-70
2022/09/03 02:22:17;;;;;;;0.60;0.60;;;14.60;99.90;;;;;;4991157;28;20481;-71
2022/09/03 02:24:44;;;;;;;0.40;0.40;;;14.60;99.90;;;;;;4988881;28;20499;-71
2022/09/03 02:27:11;;;;;;;0.50;0.50;;;14.60;99.90;;;;;;4991589;28;20469;-71
2022/09/03 02:29:38;;;;;;;0.50;0.50;;;14.60;99.90;;;;;;4990967;28;20988;-71
2022/09/03 02:32:06;;;;;;;0.50;0.50;;;14.50;99.90;;;;;;4989437;28;20470;-71
2022/09/03 02:34:34;;;;;;;0.50;0.50;;;14.60;99.90;;;;;;4993183;28;20489;-71
2022/09/03 02:37:01;;;;;;;0.40;0.40;;;14.50;99.90;;;;;;4993220;28;20476;-71
2022/09/03 02:39:28;;;;;;;1.40;1.30;;;14.50;99.90;;;;;;4991040;28;20500;-71
2022/09/03 02:41:56;;;;;;;0.83;0.70;;;14.50;99.90;;;;;;4991641;28;21120;-71
2022/09/03 02:44:30;;;;;;;0.70;0.70;;;14.50;99.90;;;;;;4991218;28;20493;-71
2022/09/03 02:46:59;;;;;;;0.70;0.70;;;14.40;99.90;;;;;;4991209;28;20500;-70
2022/09/03 02:49:27;;;;;;;0.90;0.90;;;14.40;99.90;;;;;;4988365;28;20487;-70
2022/09/03 02:51:59;;;;;;;0.93;0.70;;;14.40;99.90;;;;;;4988888;28;20470;-70
2022/09/03 02:54:26;;;;;;;1.30;0.77;;;14.50;99.90;;;;;;4979792;28;20516;-70
2022/09/03 02:56:53;;;;;;;0.70;0.70;;;14.50;99.90;;;;;;4989883;28;20546;-70
2022/09/03 02:59:21;;;;;;;0.40;0.33;;;14.50;99.90;;;;;;4989103;28;20472;-71
2022/09/03 03:01:48;;;;;;;0.43;0.40;;;14.50;99.90;;;;;;4991288;28;21065;-71
2022/09/03 03:04:15;;;;;;;0.73;0.60;;;14.50;99.90;;;;;;4988681;28;20473;-71
2022/09/03 03:06:43;;;;;;;0.80;0.80;;;14.40;99.90;;;;;;4988925;28;20476;-70
2022/09/03 03:09:10;;;;;;;0.50;0.50;;;14.40;99.90;;;;;;4991159;28;20953;-71
2022/09/03 03:11:36;;;;;;;0.70;0.70;;;14.40;99.90;;;;;;4989950;28;20474;-71
2022/09/03 03:14:03;;;;;;;0.60;0.60;;;14.40;99.90;;;;;;4989858;28;20826;-70
2022/09/03 03:16:30;;;;;;;0.50;0.50;;;14.40;99.90;;;;;;4990045;28;20962;-71
2022/09/03 03:18:57;;;;;;;0.90;0.90;;;14.40;99.90;;;;;;4990078;28;20480;-71
2022/09/03 03:21:24;;;;;;;0.67;0.60;;;14.40;99.90;;;;;;4989706;28;20996;-71
2022/09/03 03:23:52;;;;;;;0.77;0.77;;;14.40;99.90;;;;;;4975402;28;20492;-70
2022/09/03 03:26:21;;;;;;;1.90;0.60;;;14.40;99.90;;;;;;4987527;28;20485;-70
2022/09/03 03:28:50;;;;;;;0.90;0.90;;;14.40;99.90;;;;;;4991436;28;20465;-71
2022/09/03 03:31:18;;;;;;;0.70;0.70;;;14.30;99.90;;;;;;4994846;28;20449;-71
2022/09/03 03:33:50;;;;;;;0.70;0.70;;;14.30;99.90;;;;;;4994071;28;20858;-71
2022/09/03 03:36:17;;;;;;;0.40;0.40;;;14.30;99.90;;;;;;4992838;28;20496;-70
2022/09/03 03:38:45;;;;;;;0.40;0.40;;;14.30;99.90;;;;;;4995312;28;20563;-71
2022/09/03 03:41:15;;;;;;;1.90;0.70;;;14.20;99.90;;;;;;4994180;28;21067;-70
2022/09/03 03:43:43;;;;;;;0.77;0.77;;;14.20;99.90;;;;;;4992727;28;20957;-70
2022/09/03 03:46:10;;;;;;;0.50;0.50;;;14.20;99.90;;;;;;4993054;28;20492;-70
2022/09/03 03:48:38;;;;;;;0.50;0.50;;;14.20;99.90;;;;;;4988854;28;20553;-70
2022/09/03 03:51:06;;;;;;;0.87;0.70;;;14.20;99.90;;;;;;4994037;28;20470;-70
2022/09/03 03:53:34;;;;;;;0.50;0.50;;;14.10;99.90;;;;;;4985109;28;20913;-70
2022/09/03 03:56:02;;;;;;;0.70;0.70;;;14.10;99.90;;;;;;4994115;28;20493;-70
2022/09/03 03:58:31;;;;;;;0.50;0.50;;;14.10;99.90;;;;;;4993954;28;20469;-70
2022/09/03 04:01:04;;;;;;;0.40;0.40;;;14.10;99.90;;;;;;4998673;28;20467;-70
2022/09/03 04:03:31;;;;;;;0.60;0.60;;;14.10;99.90;;;;;;4990222;28;20473;-70
2022/09/03 04:05:59;;;;;;;1.23;0.63;;;14.10;99.90;;;;;;4992205;28;20488;-70
2022/09/03 04:08:26;;;;;;;0.67;0.67;;;14.00;99.90;;;;;;4993979;28;20570;-70
2022/09/03 04:10:53;;;;;;;0.70;0.70;;;14.00;99.90;;;;;;4993687;28;20475;-70
2022/09/03 04:13:20;;;;;;;0.80;0.80;;;14.00;99.90;;;;;;4991460;28;20464;-70
2022/09/03 04:15:48;;;;;;;0.80;0.80;;;14.00;99.90;;;;;;4986517;28;20501;-70
2022/09/03 04:18:15;;;;;;;0.40;0.40;;;14.00;99.90;;;;;;4993639;28;20468;-69
2022/09/03 04:20:43;;;;;;;3.23;0.77;;;13.90;99.90;;;;;;4993900;28;21078;-70
2022/09/03 04:23:10;;;;;;;0.50;0.50;;;13.90;99.90;;;;;;4987822;28;20581;-70
2022/09/03 04:25:36;;;;;;;0.60;0.50;;;13.80;99.90;;;;;;5009870;23;20484;-71
2022/09/03 04:28:03;;;;;;;0.80;0.80;;;13.80;99.90;;;;;;4973683;28;20469;-70
2022/09/03 04:30:30;;;;;;;0.97;0.97;;;13.80;99.90;;;;;;4972831;28;20466;-70
2022/09/03 04:32:58;;;;;;;1.03;1.00;;;13.80;99.90;;;;;;4970893;28;20469;-69
2022/09/03 04:35:30;;;;;;;0.60;0.60;;;13.80;99.90;;;;;;4973458;28;20784;-70
2022/09/03 04:37:58;;;;;;;0.70;0.60;;;13.80;99.90;;;;;;4939466;28;20775;-70
2022/09/03 04:40:24;;;;;;;0.40;0.40;;;13.70;99.90;;;;;;4955801;28;20216;-71
2022/09/03 04:42:56;;;;;;;1.25;0.80;;;13.80;99.90;;;;;;4950462;28;20486;-71
2022/09/03 04:45:22;;;;;;;0.50;0.50;;;13.70;99.90;;;;;;4954651;28;20204;-70
2022/09/03 04:47:58;;;;;;;0.90;0.90;;;13.70;99.90;;;;;;4948964;28;20475;-70
2022/09/03 04:50:25;;;;;;;0.47;0.47;;;13.70;99.90;;;;;;4953367;28;20474;-70
2022/09/03 04:52:53;;;;;;;0.70;0.67;;;13.70;99.90;;;;;;4963646;28;20462;-71
2022/09/03 04:55:19;;;;;;;0.50;0.50;;;13.70;99.90;;;;;;4954288;28;20995;-70
2022/09/03 04:57:46;;;;;;;1.03;1.03;;;13.70;99.90;;;;;;4952897;28;20475;-70
2022/09/03 05:00:16;;;;;;;0.60;0.60;;;13.70;99.90;;;;;;4964299;28;20472;-70
2022/09/03 05:02:45;;;;;;;0.87;0.87;;;13.70;99.90;;;;;;4963612;28;20729;-70
2022/09/03 05:05:14;;;;;;;1.27;0.93;;;13.70;99.90;;;;;;4958439;28;20490;-70
2022/09/03 05:07:40;;;;;;;1.20;0.57;;;13.80;99.90;;;;;;4951333;28;20859;-70
2022/09/03 05:10:11;;;;;;;1.10;1.10;;;13.70;99.90;;;;;;4968832;28;20207;-70
2022/09/03 05:12:38;;;;;;;0.67;0.67;;;13.70;99.90;;;;;;4956449;28;20469;-70
2022/09/03 05:15:06;;;;;;;0.67;0.67;;;13.70;99.90;;;;;;4965567;28;20469;-70
2022/09/03 05:17:33;;;;;;;0.83;0.70;;;13.70;99.90;;;;;;4962724;28;20501;-70
2022/09/03 05:20:00;;;;;;;0.87;0.87;;;13.80;99.90;;;;;;4973060;28;20492;-70
2022/09/03 05:22:28;;;;;;;0.90;0.90;;;13.70;99.90;;;;;;4962298;28;20563;-70
2022/09/03 05:24:55;;;;;;;0.57;0.57;;;13.70;99.90;;;;;;4961735;28;20469;-70
2022/09/03 05:27:22;;;;;;;0.50;0.50;;;13.80;99.90;;;;;;4952133;28;20576;-70
2022/09/03 05:29:49;;;;;;;0.90;0.90;;;13.70;99.90;;;;;;4960681;28;20205;-70
2022/09/03 05:32:16;;;;;;;0.40;0.40;;;13.80;99.90;;;;;;4966179;28;20216;-70
2022/09/03 05:34:43;;;;;;;0.50;0.50;;;13.80;99.90;;;;;;4958636;28;20533;-70
2022/09/03 05:37:10;;;;;;;0.50;0.50;;;13.80;99.90;;;;;;4972039;28;20489;-69
2022/09/03 05:39:38;;;;;;;0.60;0.60;;;13.80;99.90;;;;;;4959280;28;20580;-70
2022/09/03 05:42:05;;;;;;;0.60;0.60;;;13.90;99.90;;;;;;4962894;28;20485;-69
2022/09/03 05:44:32;;;;;;;0.50;0.50;;;13.90;99.90;;;;;;4950925;28;20995;-69
2022/09/03 05:46:58;;;;;;;0.40;0.40;;;13.90;99.90;;;;;;4937466;28;20499;-69
2022/09/03 05:49:25;;;;;;;0.40;0.40;;;14.00;99.90;;;;;;4967089;28;20515;-69
2022/09/03 05:51:51;;;;;;;0.40;0.40;;;14.00;99.90;;;;;;4957448;28;20983;-70
2022/09/03 05:54:18;;;;;;;0.90;0.90;;;14.00;99.90;;;;;;4963010;28;20987;-69
2022/09/03 05:56:46;;;;;;;0.57;0.47;;;14.00;99.90;;;;;;4967837;28;20517;-69
2022/09/03 05:59:13;;;;;;;0.90;0.90;;;14.00;99.90;;;;;;4959473;28;20466;-70
2022/09/03 06:01:42;;;;;;;0.77;0.77;;;14.10;99.90;;;;;;4956981;28;20987;-70
2022/09/03 06:04:10;;;;;;;0.70;0.70;;;14.10;99.90;;;;;;4954781;28;20461;-70
2022/09/03 06:06:39;;;;;;;0.70;0.70;;;14.20;99.90;;;;;;4962419;28;20493;-71
2022/09/03 06:09:09;;;;;;;0.40;0.40;;;14.20;99.90;;;;;;4952270;28;20542;-70
2022/09/03 06:11:37;;;;;;;0.77;0.77;;;14.30;99.90;;;;;;4961522;28;20552;-70
2022/09/03 06:14:07;;;;;;;0.90;0.90;;;14.30;99.90;;;;;;4963174;28;20977;-70
2022/09/03 06:16:36;;;;;;;0.70;0.70;;;14.30;99.90;;;;;;4954318;28;21017;-70
2022/09/03 06:19:04;;;;;;;0.50;0.50;;;14.40;99.90;;;;;;4964414;28;20473;-70
2022/09/03 06:21:31;;;;;;;0.97;0.97;;;14.50;99.90;;;;;;4957041;28;21130;-71
2022/09/03 06:23:58;;;;;;;0.60;0.60;;;14.50;99.90;;;;;;4946801;28;20499;-70
2022/09/03 06:26:27;;;;;;;0.73;0.70;;;14.60;99.90;;;;;;4961005;28;21072;-70
2022/09/03 06:28:55;;;;;;;0.70;0.70;;;14.70;99.90;;;;;;4972481;28;20471;-70
2022/09/03 06:31:23;;;;;;;0.80;0.80;;;14.70;99.90;;;;;;4957354;28;20474;-70
2022/09/03 06:33:50;;;;;;;1.03;1.03;;;14.80;99.90;;;;;;4954619;28;20463;-70
2022/09/03 06:36:19;;;;;;;0.50;0.50;;;14.80;99.90;;;;;;4959183;28;20497;-70
2022/09/03 06:38:46;;;;;;;0.73;0.73;;;14.80;99.90;;;;;;4954994;28;20548;-70
2022/09/03 06:41:19;;;;;;;0.50;0.50;;;15.00;99.90;;;;;;4952313;28;20471;-70
2022/09/03 06:43:48;;;;;;;0.50;0.50;;;15.00;99.90;;;;;;4945978;28;20917;-70
2022/09/03 06:46:16;;;;;;;1.20;1.10;;;15.10;99.90;;;;;;4952046;28;20524;-71
2022/09/03 06:48:45;;;;;;;0.60;0.60;;;15.20;99.90;;;;;;4962871;28;20835;-70
2022/09/03 06:51:13;;;;;;;0.87;0.47;;;15.30;99.90;;;;;;4940860;28;20474;-70
2022/09/03 06:53:41;;;;;;;1.23;1.13;;;15.40;99.90;;;;;;4956497;28;20497;-70
2022/09/03 06:56:10;;;;;;;0.70;0.70;;;15.50;99.90;;;;;;4955134;28;20495;-70
2022/09/03 06:58:41;;;;;;;0.30;0.30;;;15.50;99.90;;;;;;4951267;28;20972;-70
2022/09/03 07:01:10;;;;;;;0.70;0.70;;;15.60;99.90;;;;;;4958585;28;20482;-70
2022/09/03 07:03:38;;;;;;;0.80;0.80;;;15.80;99.90;;;;;;4951999;28;20507;-69
2022/09/03 07:06:09;;;;;;;1.03;1.03;;;15.80;99.90;;;;;;4952258;28;20488;-70
2022/09/03 07:08:36;;;;;;;0.43;0.43;;;15.90;99.90;;;;;;4938956;28;20482;-70
2022/09/03 07:11:08;;;;;;;0.87;0.87;;;16.00;99.90;;;;;;4952055;28;20477;-70
2022/09/03 07:13:35;;;;;;;0.53;0.53;;;16.10;99.90;;;;;;4944891;28;20561;-70
2022/09/03 07:16:03;;;;;;;0.57;0.57;;;16.20;99.90;;;;;;4947450;28;20500;-70
2022/09/03 07:18:30;;;;;;;0.40;0.40;;;16.30;99.90;;;;;;4946819;28;20502;-70
2022/09/03 07:20:59;;;;;;;0.70;0.70;;;16.30;99.90;;;;;;4948257;28;20476;-70
2022/09/03 07:23:28;;;;;;;0.50;0.50;;;16.40;99.90;;;;;;4952178;28;21016;-70
2022/09/03 07:25:55;;;;;;;0.40;0.40;;;16.50;99.90;;;;;;4934501;29;21011;-69
2022/09/03 07:28:23;;;;;;;0.60;0.60;;;16.50;99.90;;;;;;4948995;28;20476;-70
2022/09/03 07:30:49;;;;;;;0.90;0.90;;;16.60;99.90;;;;;;4949696;28;20465;-70
2022/09/03 07:33:17;;;;;;;1.40;0.63;;;16.70;99.90;;;;;;4969049;28;20822;-70
2022/09/03 07:35:43;;;;;;;0.60;0.60;;;16.70;99.90;;;;;;4971707;28;20515;-70
2022/09/03 07:38:10;;;;;;;0.57;0.57;;;16.80;99.90;;;;;;4956627;28;20471;-70
2022/09/03 07:40:38;;;;;;;0.40;0.40;;;16.90;99.90;;;;;;4936148;28;21027;-70
2022/09/03 07:43:05;;;;;;;0.80;0.80;;;17.00;99.90;;;;;;4943811;28;20544;-71
2022/09/03 07:45:32;;;;;;;1.70;1.70;;;17.10;99.90;;;;;;4970683;28;20503;-69
2022/09/03 07:47:59;;;;;;;0.57;0.57;;;17.10;99.90;;;;;;4958175;28;20465;-69
2022/09/03 07:50:26;;;;;;;0.87;0.50;;;17.10;99.90;;;;;;4958643;28;20844;-69
2022/09/03 07:52:56;;;;;;;0.40;0.40;;;17.20;99.90;;;;;;4955964;28;20470;-70
2022/09/03 07:55:23;;;;;;;0.70;0.70;;;17.30;99.90;;;;;;4956809;28;20479;-70
2022/09/03 07:57:55;;;;;;;0.40;0.40;;;17.30;99.90;;;;;;4950218;28;20482;-69
2022/09/03 08:00:22;;;;;;;0.63;0.63;;;17.40;99.90;;;;;;4958616;28;20555;-69
2022/09/03 08:02:49;;;;;;;0.60;0.60;;;17.40;99.90;;;;;;4954988;28;21004;-70
2022/09/03 08:05:17;;;;;;;0.53;0.53;;;17.50;99.90;;;;;;4945800;28;20795;-70
2022/09/03 08:07:44;;;;;;;0.50;0.50;;;17.60;99.90;;;;;;4957700;28;20466;-70
2022/09/03 08:10:12;;;;;;;0.53;0.53;;;17.70;99.90;;;;;;4961621;28;20474;-70
2022/09/03 08:12:39;;;;;;;1.17;1.03;;;17.70;99.90;;;;;;4954494;28;20526;-70
2022/09/03 08:15:08;;;;;;;0.40;0.40;;;17.80;99.90;;;;;;4951312;28;20967;-69
2022/09/03 08:17:35;;;;;;;0.50;0.50;;;17.80;99.90;;;;;;4951541;28;20486;-69
2022/09/03 08:20:02;;;;;;;0.63;0.63;;;17.90;99.90;;;;;;4957551;28;20465;-70
2022/09/03 08:22:29;;;;;;;0.70;0.70;;;18.00;99.90;;;;;;4966690;28;20497;-70
2022/09/03 08:24:56;;;;;;;5.57;1.03;;;18.10;99.90;;;;;;4973153;28;20837;-70
2022/09/03 08:27:24;;;;;;;0.70;0.70;;;18.20;99.90;;;;;;4937303;28;20572;-70
2022/09/03 08:29:50;;;;;;;0.50;0.50;;;18.30;99.90;;;;;;4959706;28;20893;-69
2022/09/03 08:32:19;;;;;;;0.87;0.60;;;18.40;99.90;;;;;;4965941;28;20469;-70
2022/09/03 08:34:45;;;;;;;0.60;0.40;;;18.50;99.90;;;;;;4954268;28;20462;-69
2022/09/03 08:37:12;;;;;;;0.70;0.70;;;18.60;99.90;;;;;;4961852;28;20491;-70
2022/09/03 08:39:39;;;;;;;0.70;0.70;;;18.70;99.90;;;;;;4951288;28;20570;-69
2022/09/03 08:42:36;;;;;;;2.30;0.50;;;18.80;99.90;;;;;;4966302;28;20816;-70
2022/09/03 08:45:08;;;;;;;0.70;0.70;;;19.00;99.90;;;;;;4974832;28;20552;-70
2022/09/03 08:47:41;;;;;;;0.90;0.90;;;19.20;99.90;;;;;;4974455;28;20491;-69
2022/09/03 08:50:13;;;;;;;0.53;0.53;;;19.30;99.90;;;;;;4956741;28;20988;-70
2022/09/03 08:52:47;;;;;;;0.40;0.40;;;19.30;99.90;;;;;;4958982;28;20468;-70
2022/09/03 08:55:21;;;;;;;0.53;0.53;;;19.40;99.90;;;;;;4948730;28;20467;-70
2022/09/03 08:57:50;;;;;;;0.50;0.50;;;19.40;99.90;;;;;;4935886;29;20486;-70
2022/09/03 09:00:18;;;;;;;0.40;0.40;;;19.50;99.90;;;;;;4952435;28;20471;-70
2022/09/03 09:03:06;;;;;;;0.40;0.40;;;19.50;99.90;;;;;;4965947;28;20457;-70
2022/09/03 09:05:43;;;;;;;0.40;0.40;;;19.60;99.90;;;;;;4974612;28;20965;-70
2022/09/03 09:08:18;;;;;;;1.20;0.80;;;19.70;99.90;;;;;;4945161;28;20957;-69
2022/09/03 09:10:48;;;;;;;0.87;0.87;;;19.80;99.90;;;;;;4956428;28;20485;-70
2022/09/03 09:13:23;;;;;;;0.47;0.40;;;19.80;99.90;;;;;;4941215;28;20464;-70
2022/09/03 09:16:02;;;;;;;0.30;0.30;;;19.90;99.90;;;;;;4936071;29;20516;-69
2022/09/03 09:18:39;;;;;;;0.30;0.30;;;19.90;99.90;;;;;;4935293;29;20586;-69
2022/09/03 09:21:12;;;;;;;2.13;0.60;;;19.90;99.90;;;;;;4958388;28;20904;-70
2022/09/03 09:23:43;;;;;;;0.47;0.47;;;20.00;99.90;;;;;;4935856;29;20552;-70
2022/09/03 09:26:13;;;;;;;0.77;0.77;;;20.10;99.90;;;;;;4936969;29;21013;-68
2022/09/03 09:28:42;;;;;;;0.80;0.33;;;20.20;99.90;;;;;;4959939;28;21286;-70
2022/09/03 09:31:14;;;;;;;0.40;0.40;;;20.20;99.90;;;;;;4955139;28;20473;-70
2022/09/03 09:33:42;;;;;;;0.57;0.57;;;20.30;99.90;;;;;;4959245;28;20858;-70
2022/09/03 09:36:15;;;;;;;0.50;0.50;;;20.30;99.90;;;;;;4969362;28;21030;-70
2022/09/03 09:38:44;;;;;;;0.30;0.30;;;20.30;99.90;;;;;;4957561;28;20468;-70
2022/09/03 09:41:14;;;;;;;0.83;0.83;;;20.40;99.90;;;;;;4955311;28;20471;-70
2022/09/03 09:43:41;;;;;;;0.40;0.40;;;20.40;99.90;;;;;;4964140;28;20484;-70
2022/09/03 09:46:13;;;;;;;0.67;0.67;;;20.40;99.90;;;;;;4969363;28;20483;-70
2022/09/03 09:48:49;;;;;;;0.50;0.50;;;20.40;99.90;;;;;;4964899;28;20471;-70
2022/09/03 09:51:21;;;;;;;0.90;0.83;;;20.50;99.90;;;;;;4958404;28;20478;-70
2022/09/03 09:53:48;;;;;;;0.60;0.60;;;20.50;99.90;;;;;;4960102;28;20476;-69
2022/09/03 09:56:22;;;;;;;0.77;0.77;;;20.70;99.90;;;;;;4954567;28;20494;-70
2022/09/03 09:58:51;;;;;;;0.57;0.57;;;20.70;99.90;;;;;;4953364;28;20864;-69
2022/09/03 10:01:24;;;;;;;0.43;0.43;;;20.80;99.90;;;;;;4959864;28;20461;-70
2022/09/03 10:03:55;;;;;;;0.47;0.47;;;20.80;99.90;;;;;;4935055;28;20246;-69
2022/09/03 10:09:11;;;;;;;0.50;0.50;;;21.00;99.90;;;;;;4953870;29;20456;-69
2022/09/03 10:11:40;;;;;;;0.30;0.30;;;21.00;99.90;;;;;;4961267;28;20472;-70
2022/09/03 10:14:17;;;;;;;0.40;0.40;;;21.00;99.90;;;;;;4966778;28;20463;-70
2022/09/03 10:16:50;;;;;;;0.40;0.40;;;21.10;99.80;;;;;;4934570;29;20489;-70
2022/09/03 10:19:20;;;;;;;0.33;0.33;;;21.10;99.90;;;;;;4933437;28;20540;-70
2022/09/03 10:21:54;;;;;;;0.63;0.63;;;21.20;99.20;;;;;;4949376;28;20595;-70
2022/09/03 10:24:39;;;;;;;0.70;0.70;;;21.20;99.90;;;;;;4944252;28;20568;-69
2022/09/03 10:27:11;;;;;;;2.50;0.70;;;21.20;99.50;;;;;;4958085;28;20947;-70
2022/09/03 10:29:39;;;;;;;0.50;0.50;;;21.20;99.30;;;;;;4953560;28;20468;-70
2022/09/03 10:32:22;;;;;;;0.60;0.60;;;21.20;99.10;;;;;;4950776;28;20984;-70
2022/09/03 10:35:02;;;;;;;0.70;0.70;;;21.30;99.00;;;;;;4953996;28;20548;-70
2022/09/03 10:37:37;;;;;;;0.70;0.70;;;21.30;97.80;;;;;;4952892;28;20490;-70
2022/09/03 10:40:19;;;;;;;0.80;0.80;;;21.40;97.70;;;;;;4953330;28;20478;-70
2022/09/03 10:42:51;;;;;;;0.60;0.60;;;21.40;97.80;;;;;;4950754;28;20477;-69
2022/09/03 10:45:23;;;;;;;1.10;1.10;;;21.50;97.70;;;;;;4958055;28;20483;-70
2022/09/03 10:48:16;;;;;;;0.50;0.50;;;21.50;97.30;;;;;;4944114;28;20465;-70
2022/09/03 10:50:49;;;;;;;0.50;0.50;;;21.50;97.60;;;;;;4953599;28;20474;-70
2022/09/03 10:53:28;;;;;;;0.37;0.37;;;21.60;97.00;;;;;;4958618;28;20510;-71
2022/09/03 10:56:01;;;;;;;0.50;0.50;;;21.80;96.30;;;;;;4947301;29;20481;-71
2022/09/03 10:58:51;;;;;;;0.97;0.87;;;21.90;96.00;;;;;;4952544;28;20464;-71
2022/09/03 11:01:27;;;;;;;0.70;0.70;;;21.90;95.20;;;;;;4952870;28;20958;-70
2022/09/03 11:04:05;;;;;;;0.40;0.40;;;21.90;94.30;;;;;;4958470;28;20481;-71
2022/09/03 11:06:41;;;;;;;0.67;0.67;;;21.90;93.00;;;;;;4970961;28;20491;-70
2022/09/03 11:09:15;;;;;;;0.97;0.97;;;22.00;91.90;;;;;;4972068;28;20492;-70
2022/09/03 11:11:47;;;;;;;0.53;0.53;;;22.00;91.40;;;;;;4945412;28;20466;-70
2022/09/03 11:14:17;;;;;;;0.40;0.40;;;21.90;90.80;;;;;;4956442;28;20466;-71
2022/09/03 11:16:48;;;;;;;0.70;0.70;;;22.00;88.90;;;;;;4933634;29;20534;-71
2022/09/03 11:19:18;;;;;;;5.17;0.77;;;22.20;88.60;;;;;;4933169;29;20947;-71
2022/09/03 11:21:48;;;;;;;1.60;0.40;;;22.30;87.10;;;;;;4933054;29;21199;-71
2022/09/03 11:24:19;;;;;;;0.40;0.40;;;22.40;86.40;;;;;;4958289;28;20489;-71
2022/09/03 11:26:53;;;;;;;0.40;0.40;;;22.30;86.10;;;;;;4952818;28;20568;-72
2022/09/03 11:29:25;;;;;;;0.50;0.50;;;22.30;86.50;;;;;;4950090;28;20470;-71
2022/09/03 11:32:02;;;;;;;0.67;0.40;;;22.50;86.90;;;;;;4952851;28;20797;-71
2022/09/03 11:34:32;;;;;;;0.40;0.40;;;22.60;83.50;;;;;;4949734;28;20497;-71
2022/09/03 11:37:16;;;;;;;0.53;0.53;;;22.60;84.80;;;;;;4959602;28;20981;-70
2022/09/03 11:39:43;;;;;;;0.50;0.50;;;22.80;84.80;;;;;;4959285;28;20522;-71
2022/09/03 11:42:12;;;;;;;0.50;0.50;;;22.90;84.40;;;;;;4961940;28;20523;-70
2022/09/03 11:44:41;;;;;;;0.40;0.40;;;22.90;84.40;;;;;;4969299;28;20490;-71
2022/09/03 11:47:16;;;;;;;1.03;0.67;;;22.80;85.20;;;;;;4956441;28;20483;-70
2022/09/03 11:49:49;;;;;;;0.87;0.53;;;22.60;85.00;;;;;;4933794;29;20817;-70
2022/09/03 11:52:27;;;;;;;0.73;0.73;;;22.40;84.60;;;;;;4935320;28;20456;-71
2022/09/03 11:54:53;;;;;;;0.50;0.50;;;22.30;84.50;;;;;;4962540;28;20571;-71
2022/09/03 11:57:27;;;;;;;0.20;0.20;;;22.30;84.90;;;;;;4974134;28;20483;-71
2022/09/03 11:59:54;;;;;;;0.50;0.50;;;22.40;84.70;;;;;;4961585;28;20553;-70
2022/09/03 12:02:27;;;;;;;0.40;0.40;;;22.40;85.00;;;;;;4955375;28;20462;-71
2022/09/03 12:05:11;;;;;;;0.60;0.60;;;22.50;84.90;;;;;;4958392;28;21010;-71
2022/09/03 12:07:54;;;;;;;0.60;0.60;;;22.60;83.30;;;;;;4975797;28;20521;-70
2022/09/03 12:10:31;;;;;;;0.40;0.40;;;22.40;83.30;;;;;;4975765;28;20493;-71
2022/09/03 12:13:09;;;;;;;1.33;0.50;;;22.30;83.80;;;;;;4958455;28;20483;-72
2022/09/03 12:15:49;;;;;;;1.03;1.03;;;22.10;83.30;;;;;;4974858;28;20877;-72
2022/09/03 12:18:22;;;;;;;0.50;0.50;;;22.00;84.10;;;;;;4954431;28;20478;-72
2022/09/03 12:21:01;;;;;;;0.43;0.43;;;22.00;85.20;;;;;;4954301;28;20552;-71
2022/09/03 12:23:31;;;;;;;0.73;0.53;;;22.20;84.10;;;;;;4965554;28;20488;-71
2022/09/03 12:26:02;;;;;;;0.60;0.60;;;22.40;83.60;;;;;;4947610;28;20590;-71
2022/09/03 12:28:32;;;;;;;0.60;0.60;;;22.60;82.80;;;;;;4936355;29;20511;-71
2022/09/03 12:31:19;;;;;;;0.70;0.70;;;22.60;82.70;;;;;;4937428;29;20484;-71
2022/09/03 12:33:48;;;;;;;0.63;0.63;;;22.70;82.20;;;;;;4955920;28;20581;-71
2022/09/03 12:36:15;;;;;;;1.20;1.20;;;22.80;81.70;;;;;;4940987;28;20491;-71
2022/09/03 12:38:43;;;;;;;0.83;0.83;;;22.80;82.30;;;;;;4936700;29;20537;-70
2022/09/03 12:41:25;;;;;;;0.50;0.50;;;22.90;82.40;;;;;;4937214;29;20475;-71
2022/09/03 12:43:54;;;;;;;0.60;0.60;;;23.20;82.70;;;;;;4946033;28;20518;-72
2022/09/03 12:46:24;;;;;;;0.77;0.77;;;23.20;81.80;;;;;;4962141;28;20549;-72
2022/09/03 12:48:56;;;;;;;1.10;0.60;;;23.30;80.40;;;;;;4936581;29;20504;-72
2022/09/03 12:51:23;;;;;;;0.50;0.50;;;23.20;81.10;;;;;;4936447;29;20830;-71
2022/09/03 12:53:52;;;;;;;0.43;0.43;;;23.20;81.40;;;;;;4938009;29;20587;-70
2022/09/03 12:56:21;;;;;;;0.40;0.40;;;23.20;80.40;;;;;;4964502;28;20510;-70
2022/09/03 12:58:52;;;;;;;0.60;0.60;;;23.30;79.40;;;;;;4970026;28;20470;-70
2022/09/03 13:01:22;;;;;;;0.50;0.50;;;23.30;79.90;;;;;;4936577;29;20524;-70
2022/09/03 13:03:53;;;;;;;0.93;0.93;;;23.30;79.30;;;;;;4950986;28;20470;-70
2022/09/03 13:06:22;;;;;;;0.53;0.53;;;23.20;79.30;;;;;;4965728;28;20482;-69
2022/09/03 13:08:54;;;;;;;0.50;0.50;;;23.20;80.60;;;;;;4974156;28;20472;-70
2022/09/03 13:11:23;;;;;;;1.00;1.00;;;23.10;79.50;;;;;;4969182;28;20473;-71
2022/09/03 13:13:57;;;;;;;0.40;0.40;;;23.10;80.20;;;;;;4953149;28;20478;-70